createdAt,value
2023-03-17T11:55:15.024Z,99645.66
2023-03-17T11:57:57.686Z,99640.16
2023-03-17T12:00:45.901Z,99643.97
2023-03-17T12:03:23.234Z,99624.25
2023-03-17T12:05:56.128Z,99636.00
2023-03-17T12:08:46.142Z,99617.75
2023-03-17T12:11:20.449Z,99626.78
2023-03-17T12:14:01.893Z,99628.63
2023-03-17T12:16:40.184Z,99636.31
2023-03-17T12:19:18.259Z,99618.47
2023-03-17T12:22:03.866Z,99622.09
2023-03-17T12:24:47.288Z,99620.47
2023-03-17T12:27:31.736Z,99614.13
2023-03-17T12:30:05.438Z,99613.34
2023-03-17T12:32:44.164Z,99589.69
2023-03-17T12:35:29.737Z,99602.44
2023-03-17T12:38:05.581Z,99598.00
2023-03-17T12:41:11.754Z,99591.50
2023-03-17T12:44:16.500Z,99590.34
2023-03-17T12:46:55.454Z,99586.50
2023-03-17T12:49:31.779Z,99591.25
2023-03-17T12:52:02.692Z,99585.03
2023-03-17T12:54:38.104Z,99580.88
2023-03-17T12:57:22.043Z,99580.47
2023-03-17T13:00:00.802Z,99579.13
2023-03-17T13:02:28.421Z,99576.06
2023-03-17T13:05:00.793Z,99568.66
2023-03-17T13:07:34.334Z,99570.56
2023-03-17T13:10:01.984Z,99568.13
2023-03-17T13:12:44.780Z,99560.47
2023-03-17T13:15:34.103Z,99568.59
2023-03-17T13:18:16.894Z,99561.25
2023-03-17T13:21:04.886Z,99565.38
2023-03-17T13:23:44.513Z,99566.00
2023-03-17T13:26:17.828Z,99556.38
2023-03-17T13:28:49.250Z,99559.25
2023-03-17T13:31:31.913Z,99550.81
2023-03-17T13:34:17.956Z,99560.88
2023-03-17T13:36:58.011Z,99560.63
2023-03-17T13:39:45.039Z,99562.66
2023-03-17T13:42:18.723Z,99566.78
2023-03-17T13:45:06.793Z,99571.25
2023-03-17T13:47:38.386Z,99563.63
2023-03-17T13:50:32.763Z,99559.25
2023-03-17T13:53:10.472Z,99555.19
2023-03-17T13:55:41.562Z,99551.59
2023-03-17T13:58:11.347Z,99542.88
2023-03-17T14:00:45.280Z,99536.53
2023-03-17T14:03:30.002Z,99538.69
2023-03-17T14:06:02.536Z,99542.56
2023-03-17T14:08:33.842Z,99530.38
2023-03-17T14:11:06.774Z,99524.50
2023-03-17T14:13:56.106Z,99527.38
2023-03-17T14:16:28.036Z,99521.75
2023-03-17T14:19:00.855Z,99517.38
2023-03-17T14:21:33.584Z,99515.19
2023-03-17T14:24:06.589Z,99502.69
2023-03-17T14:26:34.158Z,99502.88
2023-03-17T14:29:04.829Z,99507.50
2023-03-17T14:31:32.555Z,99511.53
2023-03-17T14:34:01.285Z,99498.44
2023-03-17T14:36:33.630Z,99494.41
2023-03-17T14:39:01.160Z,99497.25
2023-03-17T14:41:29.372Z,99498.44
2023-03-17T14:43:59.363Z,99484.69
2023-03-17T14:46:38.713Z,99474.38
2023-03-17T14:49:22.519Z,99485.75
2023-03-17T14:51:53.577Z,99466.84
2023-03-17T14:54:26.616Z,99459.94
2023-03-17T14:57:02.316Z,99457.22
2023-03-17T14:59:41.073Z,99466.59
2023-03-17T15:02:24.628Z,99466.69
2023-03-17T15:04:56.771Z,99457.06
2023-03-17T15:07:29.653Z,99464.19
2023-03-17T15:10:06.882Z,99453.50
2023-03-17T15:12:34.695Z,99445.75
2023-03-17T15:15:07.795Z,99453.84
2023-03-17T15:17:37.048Z,99447.66
2023-03-17T15:20:11.915Z,99440.00
2023-03-17T15:22:42.533Z,99445.19
2023-03-17T15:25:27.795Z,99426.63
2023-03-17T15:27:56.490Z,99437.34
2023-03-17T15:30:29.513Z,99427.16
2023-03-17T15:33:04.157Z,99423.28
2023-03-17T15:35:31.877Z,99428.69
2023-03-17T15:37:59.506Z,99438.44
2023-03-17T15:40:27.075Z,99435.66
2023-03-17T15:42:54.864Z,99430.78
2023-03-17T15:45:22.701Z,99427.38
2023-03-17T15:47:50.552Z,99421.94
2023-03-17T15:50:29.504Z,99421.50
2023-03-17T15:52:57.907Z,99424.16
2023-03-17T15:55:31.427Z,99411.72
2023-03-17T15:57:59.468Z,99418.16
2023-03-17T16:00:29.900Z,99418.94
2023-03-17T16:03:02.398Z,99414.75
2023-03-17T16:05:32.557Z,99412.97
2023-03-17T16:08:00.649Z,99415.91
2023-03-17T16:10:31.864Z,99416.63
2023-03-17T16:12:59.709Z,99421.81
2023-03-17T16:15:32.993Z,99420.03
2023-03-17T16:18:04.361Z,99415.53
2023-03-17T16:20:38.632Z,99406.25
2023-03-17T16:23:18.096Z,99411.53
2023-03-17T16:25:46.614Z,99420.81
2023-03-17T16:28:18.600Z,99417.50
2023-03-17T16:30:48.463Z,99421.81
2023-03-17T16:33:21.950Z,99420.19
2023-03-17T16:35:52.346Z,99426.44
2023-03-17T16:38:25.650Z,99426.38
2023-03-17T16:40:55.409Z,99428.53
2023-03-17T16:43:29.836Z,99425.09
2023-03-17T16:45:58.272Z,99426.78
2023-03-17T16:48:27.040Z,99421.97
2023-03-17T16:50:56.600Z,99430.19
2023-03-17T16:53:25.399Z,99432.44
2023-03-17T16:55:55.135Z,99419.78
2023-03-17T16:58:25.054Z,99425.06
2023-03-17T17:01:02.607Z,99429.00
2023-03-17T17:03:31.403Z,99430.78
2023-03-17T17:05:59.236Z,99431.28
2023-03-17T17:08:27.113Z,99425.31
2023-03-17T17:10:54.899Z,99434.41
2023-03-17T17:13:23.173Z,99426.84
2023-03-17T17:15:51.026Z,99422.47
2023-03-17T17:18:27.319Z,99423.94
2023-03-17T17:20:56.728Z,99418.94
2023-03-17T17:23:26.661Z,99415.53
2023-03-17T17:25:54.717Z,99420.06
2023-03-17T17:28:24.594Z,99429.09
2023-03-17T17:30:53.103Z,99430.06
2023-03-17T17:33:22.017Z,99429.28
2023-03-17T17:35:51.011Z,99426.59
2023-03-17T17:38:28.343Z,99426.78
2023-03-17T17:40:58.320Z,99430.22
2023-03-17T17:43:26.299Z,99417.66
2023-03-17T17:45:54.984Z,99426.38
2023-03-17T17:48:25.652Z,99418.56
2023-03-17T17:50:55.704Z,99432.38
2023-03-17T17:53:24.035Z,99424.88
2023-03-17T17:55:52.372Z,99435.44
2023-03-17T17:58:25.321Z,99424.34
2023-03-17T18:00:55.391Z,99423.38
2023-03-17T18:03:25.350Z,99431.88
2023-03-17T18:05:54.778Z,99428.41
2023-03-17T18:08:24.133Z,99428.38
2023-03-17T18:10:52.984Z,99426.72
2023-03-17T18:13:22.562Z,99429.06
2023-03-17T18:15:50.309Z,99423.41
2023-03-17T18:18:18.235Z,99438.84
2023-03-17T18:20:46.559Z,99435.59
2023-03-17T18:23:16.442Z,99427.91
2023-03-17T18:25:49.770Z,99428.00
2023-03-17T18:28:18.814Z,99432.66
2023-03-17T18:30:47.336Z,99440.22
2023-03-17T18:33:18.450Z,99438.34
2023-03-17T18:35:48.920Z,99434.66
2023-03-17T18:38:17.154Z,99433.69
2023-03-17T18:40:45.422Z,99431.97
2023-03-17T18:43:14.598Z,99437.91
2023-03-17T18:45:42.408Z,99431.72
2023-03-17T18:48:10.714Z,99434.97
2023-03-17T18:50:38.691Z,99439.78
2023-03-17T18:53:06.892Z,99436.53
2023-03-17T18:55:34.822Z,99431.81
2023-03-17T18:58:02.670Z,99434.72
2023-03-17T19:00:32.702Z,99427.94
2023-03-17T19:03:00.995Z,99432.22
2023-03-17T19:05:30.407Z,99438.72
2023-03-17T19:08:05.392Z,99427.84
2023-03-17T19:10:34.422Z,99434.88
2023-03-17T19:13:06.203Z,99420.72
2023-03-17T19:15:35.829Z,99427.88
2023-03-17T19:18:05.686Z,99432.84
2023-03-17T19:20:41.922Z,99429.84
2023-03-17T19:23:15.567Z,99423.66
2023-03-17T19:25:43.660Z,99424.47
2023-03-17T19:28:11.747Z,99416.59
2023-03-17T19:30:40.796Z,99419.50
2023-03-17T19:33:09.260Z,99421.94
2023-03-17T19:35:38.017Z,99425.75
2023-03-17T19:38:05.646Z,99419.50
2023-03-17T19:40:40.589Z,99416.38
2023-03-17T19:43:08.787Z,99418.91
2023-03-17T19:45:37.500Z,99416.88
2023-03-17T19:48:05.590Z,99421.53
2023-03-17T19:50:34.625Z,99411.53
2023-03-17T19:53:04.372Z,99405.78
2023-03-17T19:55:41.417Z,99402.28
2023-03-17T19:58:12.460Z,99401.09
2023-03-17T20:00:43.100Z,99394.78
2023-03-17T20:03:12.660Z,99401.66
2023-03-17T20:05:41.065Z,99404.75
2023-03-17T20:08:09.524Z,99408.44
2023-03-17T20:10:38.509Z,99395.84
2023-03-17T20:13:06.628Z,99392.28
2023-03-17T20:15:34.671Z,99395.03
2023-03-17T20:18:02.684Z,99395.97
2023-03-17T20:20:36.589Z,99395.38
2023-03-17T20:23:06.728Z,99402.09
2023-03-17T20:25:34.602Z,99398.00
2023-03-17T20:28:02.804Z,99402.25
2023-03-17T20:30:36.060Z,99396.56
2023-03-17T20:33:06.712Z,99397.72
2023-03-17T20:35:43.357Z,99395.97
2023-03-17T20:38:13.508Z,99400.41
2023-03-17T20:40:42.516Z,99396.78
2023-03-17T20:43:11.689Z,99395.53
2023-03-17T20:45:41.249Z,99397.44
2023-03-17T20:48:14.331Z,99394.38
2023-03-17T20:50:49.944Z,99389.91
2023-03-17T20:53:17.866Z,99386.25
2023-03-17T20:55:45.882Z,99388.22
2023-03-17T20:58:13.760Z,99386.75
2023-03-17T21:00:42.208Z,99378.53
2023-03-17T21:03:10.830Z,99382.16
2023-03-17T21:05:39.995Z,99381.94
2023-03-17T21:08:08.735Z,99382.66
2023-03-17T21:10:36.299Z,99373.97
2023-03-17T21:13:04.960Z,99367.25
2023-03-17T21:15:32.931Z,99370.97
2023-03-17T21:18:00.812Z,99367.28
2023-03-17T21:20:30.574Z,99360.75
2023-03-17T21:23:03.295Z,99362.31
2023-03-17T21:25:31.230Z,99358.19
2023-03-17T21:28:00.331Z,99364.03
2023-03-17T21:30:28.026Z,99358.59
2023-03-17T21:32:55.602Z,99358.03
2023-03-17T21:35:24.500Z,99364.72
2023-03-17T21:37:53.560Z,99369.53
2023-03-17T21:40:22.517Z,99361.66
2023-03-17T21:42:50.552Z,99367.50
2023-03-17T21:45:18.782Z,99370.00
2023-03-17T21:47:46.471Z,99368.22
2023-03-17T21:50:17.519Z,99372.97
2023-03-17T21:52:45.558Z,99369.06
2023-03-17T21:55:13.893Z,99367.66
2023-03-17T21:57:41.654Z,99376.09
2023-03-17T22:00:10.757Z,99373.63
2023-03-17T22:02:41.863Z,99370.50
2023-03-17T22:05:10.517Z,99370.06
2023-03-17T22:07:41.024Z,99376.97
2023-03-17T22:10:10.057Z,99375.78
2023-03-17T22:12:38.562Z,99377.13
2023-03-17T22:15:08.868Z,99389.41
2023-03-17T22:17:36.758Z,99382.78
2023-03-17T22:20:08.660Z,99378.16
2023-03-17T22:22:36.690Z,99379.34
2023-03-17T22:25:06.234Z,99372.00
2023-03-17T22:27:34.088Z,99372.41
2023-03-17T22:30:01.977Z,99367.28
2023-03-17T22:32:30.203Z,99369.94
2023-03-17T22:34:57.804Z,99366.66
2023-03-17T22:37:25.689Z,99354.16
2023-03-17T22:39:53.305Z,99357.97
2023-03-17T22:42:21.087Z,99360.91
2023-03-17T22:44:48.749Z,99360.34
2023-03-17T22:47:16.476Z,99360.78
2023-03-17T22:49:44.232Z,99360.34
2023-03-17T22:52:11.873Z,99364.03
2023-03-17T22:54:39.360Z,99362.31
2023-03-17T22:57:07.138Z,99362.31
2023-03-17T22:59:36.329Z,99351.47
2023-03-17T23:02:03.939Z,99353.50
2023-03-17T23:04:33.746Z,99350.19
2023-03-17T23:07:01.655Z,99345.28
2023-03-17T23:09:29.349Z,99344.31
2023-03-17T23:11:57.253Z,99346.41
2023-03-17T23:14:25.101Z,99348.25
2023-03-17T23:16:52.860Z,99351.31
2023-03-17T23:19:20.645Z,99350.91
2023-03-17T23:21:48.486Z,99347.81
2023-03-17T23:24:19.422Z,99346.75
2023-03-17T23:26:47.165Z,99349.00
2023-03-17T23:29:14.831Z,99349.25
2023-03-17T23:31:44.843Z,99347.22
2023-03-17T23:34:12.406Z,99346.00
2023-03-17T23:36:40.662Z,99339.91
2023-03-17T23:39:08.952Z,99335.16
2023-03-17T23:41:37.262Z,99340.03
2023-03-17T23:44:05.547Z,99342.22
2023-03-17T23:46:34.709Z,99342.09
2023-03-17T23:49:02.803Z,99337.59
2023-03-17T23:51:30.900Z,99337.19
2023-03-17T23:53:59.138Z,99330.19
2023-03-17T23:56:27.442Z,99332.69
2023-03-17T23:58:55.908Z,99336.47
